Time;durP1;ratioP1;P1;durP2;ratioP2;P2;SDS_P1;SDS_P2;PMS_P1;PMS_P2;Temp;Humidity;BMP_temperature;BMP_pressure;BME280_temperature;BME280_humidity;BME280_pressure;Samples;Min_cycle;Max_cycle;Signal;HPM_P1;HPM_P2
2024/01/30 06:00:32;;;;;;;6.93;5.40;;;;;;;;;;1723398;28;20262;-78
2024/01/30 06:01:23;;;;;;;6.13;5.53;;;;;;;;;;1726500;28;20205;-79
2024/01/30 06:02:14;;;;;;;6.68;6.03;;;;;;;;;;1726747;28;20207;-79
2024/01/30 06:03:06;;;;;;;7.20;6.03;;;;;;;;;;1726796;28;20200;-78
2024/01/30 06:03:57;;;;;;;6.68;6.03;;;;;;;;;;1727522;28;20207;-78
2024/01/30 06:04:49;;;;;;;6.50;5.80;;;;;;;;;;1727654;28;20210;-78
2024/01/30 06:05:41;;;;;;;7.03;6.32;;;;;;;;;;1727106;28;20205;-78
2024/01/30 06:06:32;;;;;;;6.47;5.32;;;;;;;;;;1728099;28;20215;-79
2024/01/30 06:07:24;;;;;;;6.57;5.90;;;;;;;;;;1734087;28;20715;-78
2024/01/30 06:08:15;;;;;;;6.95;6.28;;;;;;;;;;1734355;28;20208;-78
2024/01/30 06:09:08;;;;;;;6.00;5.50;;;;;;;;;;1727650;28;20586;-79
2024/01/30 06:10:01;;;;;;;6.00;5.40;;;;;;;;;;1727272;28;20231;-78
2024/01/30 06:10:52;;;;;;;6.40;5.80;;;;;;;;;;1728660;28;20204;-79
2024/01/30 06:11:44;;;;;;;6.32;5.75;;;;;;;;;;1727638;28;20208;-78
2024/01/30 06:12:35;;;;;;;6.32;5.72;;;;;;;;;;1727104;28;20236;-79
2024/01/30 06:13:26;;;;;;;6.30;5.22;;;;;;;;;;1727351;28;20207;-79
2024/01/30 06:14:18;;;;;;;7.43;5.68;;;;;;;;;;1731428;28;20197;-79
2024/01/30 06:15:12;;;;;;;6.60;6.00;;;;;;;;;;1727770;28;20201;-79
2024/01/30 06:16:05;;;;;;;6.13;5.60;;;;;;;;;;1728599;28;20224;-79
2024/01/30 06:16:57;;;;;;;6.38;5.78;;;;;;;;;;1734709;28;20673;-79
2024/01/30 06:17:48;;;;;;;6.75;6.05;;;;;;;;;;1734729;28;20257;-79
2024/01/30 06:18:40;;;;;;;7.70;6.03;;;;;;;;;;1728252;28;20650;-80
2024/01/30 06:19:31;;;;;;;11.05;6.35;;;;;;;;;;1728385;28;20589;-80
2024/01/30 06:20:23;;;;;;;6.40;5.80;;;;;;;;;;1727705;28;20803;-79
2024/01/30 06:21:15;;;;;;;6.78;5.95;;;;;;;;;;1727231;28;20208;-79
2024/01/30 06:22:06;;;;;;;7.10;6.40;;;;;;;;;;1728041;28;20204;-79
2024/01/30 06:22:58;;;;;;;5.93;5.43;;;;;;;;;;1727908;28;20216;-79
2024/01/30 06:23:49;;;;;;;5.93;5.43;;;;;;;;;;1727625;28;20208;-79
2024/01/30 06:24:40;;;;;;;6.45;5.75;;;;;;;;;;1727843;28;20222;-80
2024/01/30 06:25:32;;;;;;;6.28;5.68;;;;;;;;;;1728038;28;20224;-80
2024/01/30 06:26:23;;;;;;;6.28;5.68;;;;;;;;;;1732889;28;20716;-80
2024/01/30 06:27:14;;;;;;;7.05;6.15;;;;;;;;;;1727733;28;20683;-80
2024/01/30 06:28:06;;;;;;;7.88;6.90;;;;;;;;;;1733362;28;20215;-80
2024/01/30 06:28:57;;;;;;;6.47;5.88;;;;;;;;;;1732980;28;20357;-80
2024/01/30 06:29:49;;;;;;;7.18;6.47;;;;;;;;;;1727789;28;20201;-80
2024/01/30 06:30:41;;;;;;;6.90;6.30;;;;;;;;;;1726524;28;20204;-78
2024/01/30 06:31:33;;;;;;;8.27;6.50;;;;;;;;;;1731461;28;20224;-79
2024/01/30 06:32:24;;;;;;;7.18;6.47;;;;;;;;;;1736209;28;20210;-80
2024/01/30 06:33:16;;;;;;;8.23;6.60;;;;;;;;;;1734864;28;20745;-78
2024/01/30 06:34:07;;;;;;;7.78;6.97;;;;;;;;;;1729227;28;20211;-79
2024/01/30 06:34:58;;;;;;;8.15;7.30;;;;;;;;;;1729173;28;20192;-80
2024/01/30 06:35:51;;;;;;;8.38;7.63;;;;;;;;;;1735992;28;20227;-79
2024/01/30 06:36:42;;;;;;;10.80;8.82;;;;;;;;;;1729028;28;20208;-79
2024/01/30 06:37:33;;;;;;;12.57;9.40;;;;;;;;;;1732142;28;20208;-79
2024/01/30 06:38:25;;;;;;;13.73;9.07;;;;;;;;;;1729245;28;20270;-79
2024/01/30 06:39:16;;;;;;;11.25;8.85;;;;;;;;;;1732441;28;20215;-80
2024/01/30 06:40:08;;;;;;;13.68;10.15;;;;;;;;;;1735902;28;20718;-79
2024/01/30 06:40:59;;;;;;;12.18;9.18;;;;;;;;;;1733832;28;20653;-80
2024/01/30 06:41:52;;;;;;;10.35;8.02;;;;;;;;;;1736239;28;20196;-79
2024/01/30 06:42:43;;;;;;;11.70;8.02;;;;;;;;;;1735464;28;20232;-79
2024/01/30 06:43:35;;;;;;;11.75;8.20;;;;;;;;;;1729648;28;20235;-80
2024/01/30 06:44:26;;;;;;;12.90;9.25;;;;;;;;;;1729357;28;20685;-79
2024/01/30 06:45:17;;;;;;;13.25;8.63;;;;;;;;;;1735360;28;20637;-80
2024/01/30 06:46:09;;;;;;;8.57;7.63;;;;;;;;;;1735936;28;20279;-80
2024/01/30 06:47:01;;;;;;;11.35;7.45;;;;;;;;;;1731662;28;20208;-79
2024/01/30 06:47:52;;;;;;;9.25;7.90;;;;;;;;;;1729643;28;20205;-80
2024/01/30 06:48:44;;;;;;;10.05;7.75;;;;;;;;;;1732269;28;20238;-78
2024/01/30 06:49:38;;;;;;;11.48;7.35;;;;;;;;;;1736209;28;20211;-79
2024/01/30 06:50:29;;;;;;;7.63;6.93;;;;;;;;;;1734509;28;20203;-80
2024/01/30 06:51:21;;;;;;;8.18;7.38;;;;;;;;;;1729048;28;20658;-80
2024/01/30 06:52:12;;;;;;;8.63;7.75;;;;;;;;;;1729941;28;20223;-77
2024/01/30 06:53:03;;;;;;;8.88;8.02;;;;;;;;;;1730214;28;20758;-77
2024/01/30 06:53:55;;;;;;;10.18;8.90;;;;;;;;;;1728023;28;20193;-78
2024/01/30 06:54:46;;;;;;;9.63;8.63;;;;;;;;;;1727793;28;20204;-77
2024/01/30 06:55:38;;;;;;;9.90;9.00;;;;;;;;;;1727717;28;20344;-77
2024/01/30 06:56:30;;;;;;;10.50;9.50;;;;;;;;;;1732051;28;20239;-77
2024/01/30 06:57:21;;;;;;;12.55;9.85;;;;;;;;;;1734629;28;20742;-77
2024/01/30 06:58:13;;;;;;;12.75;9.43;;;;;;;;;;1731838;28;20250;-77
2024/01/30 06:59:05;;;;;;;9.93;9.05;;;;;;;;;;1728123;28;20208;-79
2024/01/30 06:59:56;;;;;;;10.50;9.50;;;;;;;;;;1731108;28;20204;-78
2024/01/30 07:00:48;;;;;;;10.10;9.10;;;;;;;;;;1735517;28;20203;-79
2024/01/30 07:01:39;;;;;;;10.77;8.80;;;;;;;;;;1729183;28;20684;-78
2024/01/30 07:02:31;;;;;;;9.40;8.43;;;;;;;;;;1735611;28;20295;-78
2024/01/30 07:03:23;;;;;;;8.90;8.10;;;;;;;;;;1736194;28;20203;-78
2024/01/30 07:04:15;;;;;;;8.55;7.60;;;;;;;;;;1730701;28;20219;-77
2024/01/30 07:05:08;;;;;;;9.38;8.55;;;;;;;;;;1729503;28;20205;-78
2024/01/30 07:05:59;;;;;;;8.07;7.35;;;;;;;;;;1733994;28;20670;-78
2024/01/30 07:06:53;;;;;;;7.65;6.88;;;;;;;;;;1728759;28;20197;-78
2024/01/30 07:07:44;;;;;;;8.00;7.20;;;;;;;;;;1728938;28;20810;-78
2024/01/30 07:08:37;;;;;;;7.95;7.15;;;;;;;;;;1728408;28;20200;-78
2024/01/30 07:09:29;;;;;;;7.57;6.80;;;;;;;;;;1729627;28;20228;-78
2024/01/30 07:10:20;;;;;;;7.55;6.78;;;;;;;;;;1726791;28;20201;-78
2024/01/30 07:11:12;;;;;;;6.20;5.60;;;;;;;;;;1726051;28;20207;-78
2024/01/30 07:12:04;;;;;;;7.28;6.45;;;;;;;;;;1728113;28;20215;-79
2024/01/30 07:12:55;;;;;;;6.45;5.80;;;;;;;;;;1725800;28;20224;-79
2024/01/30 07:13:48;;;;;;;6.80;6.10;;;;;;;;;;1725737;28;20685;-78
2024/01/30 07:14:39;;;;;;;8.02;7.18;;;;;;;;;;1727106;28;20197;-79
2024/01/30 07:15:31;;;;;;;10.55;7.07;;;;;;;;;;1726844;28;20196;-78
2024/01/30 07:16:22;;;;;;;7.88;7.07;;;;;;;;;;1725136;28;20216;-78
2024/01/30 07:17:14;;;;;;;8.25;7.45;;;;;;;;;;1726549;28;20205;-79
2024/01/30 07:18:07;;;;;;;7.18;6.47;;;;;;;;;;1727271;28;20205;-79
2024/01/30 07:18:58;;;;;;;6.60;5.93;;;;;;;;;;1728300;28;20193;-78
2024/01/30 07:19:50;;;;;;;9.30;6.70;;;;;;;;;;1728272;28;20329;-79
2024/01/30 07:20:46;;;;;;;6.75;6.05;;;;;;;;;;1727183;28;20202;-78
2024/01/30 07:21:37;;;;;;;6.85;6.15;;;;;;;;;;1728171;28;20192;-78
2024/01/30 07:22:29;;;;;;;6.90;6.20;;;;;;;;;;1725766;28;20201;-79
2024/01/30 07:23:20;;;;;;;6.68;6.00;;;;;;;;;;1729603;28;20757;-79
2024/01/30 07:24:12;;;;;;;9.18;6.88;;;;;;;;;;1726498;28;20211;-78
2024/01/30 07:25:03;;;;;;;7.80;6.18;;;;;;;;;;1729996;28;20577;-79
2024/01/30 07:25:54;;;;;;;7.20;6.32;;;;;;;;;;1727541;28;20227;-79
2024/01/30 07:26:46;;;;;;;7.78;7.07;;;;;;;;;;1729622;28;20189;-79
2024/01/30 07:27:37;;;;;;;8.38;7.45;;;;;;;;;;1727478;28;20212;-79
2024/01/30 07:28:28;;;;;;;9.35;7.88;;;;;;;;;;1726943;28;20294;-78
2024/01/30 07:29:21;;;;;;;7.68;6.93;;;;;;;;;;1727462;28;20284;-79
2024/01/30 07:30:13;;;;;;;7.85;7.05;;;;;;;;;;1727665;28;20284;-78
2024/01/30 07:31:06;;;;;;;11.48;8.77;;;;;;;;;;1727466;28;20205;-79
2024/01/30 07:31:57;;;;;;;10.05;8.60;;;;;;;;;;1724602;28;20202;-78
2024/01/30 07:32:48;;;;;;;10.93;8.88;;;;;;;;;;1730559;28;20226;-78
2024/01/30 07:33:42;;;;;;;9.55;8.07;;;;;;;;;;1725893;28;20693;-78
2024/01/30 07:34:34;;;;;;;10.75;9.65;;;;;;;;;;1726082;28;20200;-78
2024/01/30 07:35:26;;;;;;;9.38;8.48;;;;;;;;;;1723869;28;20197;-78
2024/01/30 07:36:17;;;;;;;7.80;7.00;;;;;;;;;;1726469;28;20213;-78
2024/01/30 07:37:08;;;;;;;7.65;6.88;;;;;;;;;;1726471;28;20246;-78
2024/01/30 07:38:00;;;;;;;9.07;6.57;;;;;;;;;;1726519;28;20192;-78
2024/01/30 07:38:54;;;;;;;7.57;6.45;;;;;;;;;;1726832;28;20197;-78
2024/01/30 07:39:45;;;;;;;9.35;7.30;;;;;;;;;;1725710;28;20202;-79
2024/01/30 07:40:37;;;;;;;9.55;7.38;;;;;;;;;;1726080;28;20201;-78
2024/01/30 07:41:28;;;;;;;6.65;6.00;;;;;;;;;;1725731;28;20205;-78
2024/01/30 07:42:19;;;;;;;7.95;7.13;;;;;;;;;;1725795;28;20188;-77
2024/01/30 07:43:11;;;;;;;7.72;6.60;;;;;;;;;;1723977;28;20256;-78
2024/01/30 07:44:03;;;;;;;6.93;6.25;;;;;;;;;;1728135;28;20212;-78
2024/01/30 07:44:55;;;;;;;8.10;5.60;;;;;;;;;;1724702;28;20335;-78
2024/01/30 07:45:46;;;;;;;6.45;5.85;;;;;;;;;;1726482;28;20216;-78
2024/01/30 07:46:39;;;;;;;6.03;5.53;;;;;;;;;;1725276;28;20232;-77
2024/01/30 07:47:30;;;;;;;8.55;6.50;;;;;;;;;;1725302;28;20561;-77
2024/01/30 07:48:22;;;;;;;7.43;6.72;;;;;;;;;;1725510;28;20255;-77
2024/01/30 07:49:14;;;;;;;9.38;6.80;;;;;;;;;;1725221;28;20753;-77
2024/01/30 07:50:07;;;;;;;7.70;6.95;;;;;;;;;;1728388;28;20205;-77
2024/01/30 07:50:58;;;;;;;7.60;6.93;;;;;;;;;;1726668;28;20598;-77
2024/01/30 07:51:50;;;;;;;8.93;8.02;;;;;;;;;;1724258;28;20204;-76
2024/01/30 07:52:42;;;;;;;8.27;7.30;;;;;;;;;;1724614;28;20228;-76
2024/01/30 07:53:34;;;;;;;7.80;7.00;;;;;;;;;;1727058;28;20290;-77
2024/01/30 07:54:25;;;;;;;8.00;6.32;;;;;;;;;;1725341;28;20554;-77
2024/01/30 07:55:16;;;;;;;8.43;7.63;;;;;;;;;;1726806;28;20259;-77
2024/01/30 07:56:08;;;;;;;11.88;7.65;;;;;;;;;;1725196;28;20194;-77
2024/01/30 07:57:00;;;;;;;7.75;6.72;;;;;;;;;;1722765;28;20213;-77
2024/01/30 07:57:52;;;;;;;7.60;6.90;;;;;;;;;;1734935;28;20287;-77
2024/01/30 07:58:44;;;;;;;8.52;6.47;;;;;;;;;;1734933;28;20602;-77
2024/01/30 07:59:35;;;;;;;6.88;6.18;;;;;;;;;;1728599;28;20266;-77
2024/01/30 08:00:28;;;;;;;7.55;6.47;;;;;;;;;;1727888;28;20204;-77
2024/01/30 08:01:20;;;;;;;7.68;6.50;;;;;;;;;;1732400;28;20208;-78
2024/01/30 08:02:14;;;;;;;8.52;6.82;;;;;;;;;;1734923;28;20200;-77
2024/01/30 08:03:05;;;;;;;6.82;6.05;;;;;;;;;;1731269;28;20227;-77
2024/01/30 08:03:56;;;;;;;7.03;6.32;;;;;;;;;;1727863;28;20215;-78
2024/01/30 08:04:50;;;;;;;9.07;6.35;;;;;;;;;;1729405;28;20200;-77
2024/01/30 08:05:41;;;;;;;5.65;5.13;;;;;;;;;;1734606;28;20215;-77
2024/01/30 08:06:32;;;;;;;6.50;5.85;;;;;;;;;;1734112;28;20283;-77
2024/01/30 08:07:24;;;;;;;6.85;5.40;;;;;;;;;;1734943;28;20254;-77
2024/01/30 08:08:15;;;;;;;9.30;6.93;;;;;;;;;;1721219;28;20672;-77
2024/01/30 08:09:08;;;;;;;8.07;5.80;;;;;;;;;;1733204;28;20203;-77
2024/01/30 08:09:59;;;;;;;6.18;5.68;;;;;;;;;;1734819;28;20211;-77
2024/01/30 08:10:51;;;;;;;6.47;5.82;;;;;;;;;;1729835;28;20554;-77
2024/01/30 08:11:42;;;;;;;6.88;6.18;;;;;;;;;;1727779;28;20219;-77
2024/01/30 08:12:34;;;;;;;6.38;5.70;;;;;;;;;;1730958;28;20708;-76
2024/01/30 08:13:25;;;;;;;7.28;6.18;;;;;;;;;;1734772;28;20208;-77
2024/01/30 08:14:17;;;;;;;6.32;5.72;;;;;;;;;;1733094;28;20672;-77
2024/01/30 08:15:08;;;;;;;6.22;5.63;;;;;;;;;;1727932;28;20223;-78
2024/01/30 08:16:01;;;;;;;6.65;6.05;;;;;;;;;;1728058;28;20228;-77
2024/01/30 08:16:52;;;;;;;5.95;5.45;;;;;;;;;;1734678;28;20219;-77
2024/01/30 08:17:44;;;;;;;5.90;5.38;;;;;;;;;;1734710;28;20210;-77
2024/01/30 08:18:36;;;;;;;5.93;5.35;;;;;;;;;;1729061;28;20262;-77
2024/01/30 08:19:27;;;;;;;6.28;5.68;;;;;;;;;;1728067;28;20205;-77
2024/01/30 08:20:20;;;;;;;6.10;5.50;;;;;;;;;;1732040;28;20253;-77
2024/01/30 08:21:12;;;;;;;6.65;5.60;;;;;;;;;;1734295;28;20208;-77
2024/01/30 08:22:03;;;;;;;6.63;6.03;;;;;;;;;;1731723;28;20223;-77
2024/01/30 08:22:54;;;;;;;6.85;5.15;;;;;;;;;;1727500;28;20235;-77
2024/01/30 08:23:46;;;;;;;6.40;5.80;;;;;;;;;;1729079;28;20283;-77
2024/01/30 08:24:37;;;;;;;6.45;5.85;;;;;;;;;;1734094;28;20211;-77
2024/01/30 08:25:29;;;;;;;7.53;6.03;;;;;;;;;;1727785;28;20197;-77
2024/01/30 08:26:21;;;;;;;6.50;5.80;;;;;;;;;;1721236;28;20224;-77
2024/01/30 08:27:12;;;;;;;6.50;5.88;;;;;;;;;;1721156;28;20204;-77
2024/01/30 08:28:04;;;;;;;6.65;6.05;;;;;;;;;;1731491;28;20227;-77
2024/01/30 08:28:56;;;;;;;7.10;6.00;;;;;;;;;;1734622;28;20245;-77
2024/01/30 08:29:47;;;;;;;7.07;6.35;;;;;;;;;;1730777;28;20672;-77
2024/01/30 08:30:39;;;;;;;6.72;6.13;;;;;;;;;;1727858;28;20251;-77
2024/01/30 08:31:30;;;;;;;9.30;6.80;;;;;;;;;;1729847;28;20216;-77
2024/01/30 08:32:23;;;;;;;7.20;6.50;;;;;;;;;;1734636;28;20203;-77
2024/01/30 08:33:14;;;;;;;6.90;6.30;;;;;;;;;;1733779;28;20260;-77
2024/01/30 08:34:06;;;;;;;6.85;6.15;;;;;;;;;;1727821;28;20213;-77
2024/01/30 08:34:57;;;;;;;7.55;6.78;;;;;;;;;;1727901;28;20205;-77
2024/01/30 08:35:51;;;;;;;7.63;6.80;;;;;;;;;;1734222;28;20287;-77
2024/01/30 08:36:42;;;;;;;7.93;7.13;;;;;;;;;;1734545;28;20204;-76
2024/01/30 08:37:33;;;;;;;7.88;6.65;;;;;;;;;;1729675;28;20592;-77
2024/01/30 08:38:28;;;;;;;7.45;6.80;;;;;;;;;;1727735;28;20207;-77
2024/01/30 08:39:19;;;;;;;7.20;6.40;;;;;;;;;;1728228;28;20583;-77
2024/01/30 08:40:12;;;;;;;9.45;7.82;;;;;;;;;;1727871;28;20204;-77
2024/01/30 08:41:03;;;;;;;8.90;7.70;;;;;;;;;;1727107;28;20216;-77
2024/01/30 08:41:55;;;;;;;9.30;7.93;;;;;;;;;;1727892;28;20211;-77
2024/01/30 08:42:46;;;;;;;8.50;7.65;;;;;;;;;;1728661;28;20227;-77
2024/01/30 08:43:37;;;;;;;10.18;7.85;;;;;;;;;;1734682;28;20665;-77
2024/01/30 08:44:29;;;;;;;8.82;7.50;;;;;;;;;;1734681;28;20207;-77
2024/01/30 08:45:20;;;;;;;12.40;7.57;;;;;;;;;;1728160;28;20598;-77
2024/01/30 08:46:11;;;;;;;9.20;7.22;;;;;;;;;;1727922;28;20256;-77
2024/01/30 08:47:03;;;;;;;8.15;6.80;;;;;;;;;;1732521;28;20645;-77
2024/01/30 08:47:55;;;;;;;7.97;7.15;;;;;;;;;;1734637;28;20601;-77
2024/01/30 08:48:48;;;;;;;8.80;7.20;;;;;;;;;;1731490;28;20263;-77
2024/01/30 08:49:39;;;;;;;9.18;7.72;;;;;;;;;;1727812;28;20586;-77
2024/01/30 08:50:30;;;;;;;9.45;7.80;;;;;;;;;;1729779;28;20284;-77
2024/01/30 08:51:24;;;;;;;10.38;8.43;;;;;;;;;;1734189;28;20200;-77
2024/01/30 08:52:15;;;;;;;9.18;7.53;;;;;;;;;;1734000;28;20210;-77
2024/01/30 08:53:06;;;;;;;8.10;7.30;;;;;;;;;;1727736;28;20204;-77
2024/01/30 08:53:58;;;;;;;7.93;7.13;;;;;;;;;;1727783;28;20644;-77
2024/01/30 08:54:49;;;;;;;7.40;6.70;;;;;;;;;;1733797;28;20208;-77
2024/01/30 08:55:41;;;;;;;7.15;6.45;;;;;;;;;;1730519;28;20251;-77
2024/01/30 08:56:32;;;;;;;7.80;6.30;;;;;;;;;;1732341;28;20673;-77
2024/01/30 08:58:34;;;;;;;8.02;6.88;;;;;;;;;;1729276;28;20680;-77
2024/01/30 08:59:25;;;;;;;6.75;5.93;;;;;;;;;;1727825;28;20584;-77
2024/01/30 09:00:16;;;;;;;6.80;6.10;;;;;;;;;;1731642;28;20207;-77
2024/01/30 09:01:08;;;;;;;6.22;5.63;;;;;;;;;;1734243;28;20206;-77
2024/01/30 09:01:59;;;;;;;7.00;5.82;;;;;;;;;;1732219;28;20692;-77
2024/01/30 09:02:50;;;;;;;7.90;5.82;;;;;;;;;;1727812;28;20274;-77
2024/01/30 09:03:45;;;;;;;5.90;5.40;;;;;;;;;;1728441;28;20481;-77
2024/01/30 09:04:36;;;;;;;7.65;6.15;;;;;;;;;;1734638;28;20212;-77
2024/01/30 09:05:28;;;;;;;7.60;5.45;;;;;;;;;;1734609;28;20199;-77
2024/01/30 09:06:19;;;;;;;6.63;5.95;;;;;;;;;;1727877;28;20723;-77
2024/01/30 09:07:13;;;;;;;6.72;5.57;;;;;;;;;;1727719;28;20196;-77
2024/01/30 09:08:05;;;;;;;6.53;5.63;;;;;;;;;;1733054;28;20215;-77
2024/01/30 09:08:57;;;;;;;6.28;5.55;;;;;;;;;;1734538;28;20584;-77
2024/01/30 09:09:49;;;;;;;7.40;6.57;;;;;;;;;;1730600;28;20208;-77
2024/01/30 09:10:41;;;;;;;7.78;5.70;;;;;;;;;;1727766;28;20302;-77
2024/01/30 09:11:32;;;;;;;6.05;5.43;;;;;;;;;;1729980;28;20212;-77
2024/01/30 09:12:24;;;;;;;6.95;5.70;;;;;;;;;;1727910;28;20223;-77
2024/01/30 09:13:16;;;;;;;6.80;6.20;;;;;;;;;;1728707;28;20210;-77
2024/01/30 09:14:07;;;;;;;6.78;6.07;;;;;;;;;;1734685;28;20208;-77
2024/01/30 09:14:59;;;;;;;6.50;5.65;;;;;;;;;;1734610;28;20213;-77
2024/01/30 09:15:51;;;;;;;6.28;5.78;;;;;;;;;;1728157;28;20234;-77
2024/01/30 09:16:42;;;;;;;6.97;6.00;;;;;;;;;;1727633;28;20200;-77
2024/01/30 09:17:33;;;;;;;8.20;6.55;;;;;;;;;;1732902;28;20207;-77
2024/01/30 09:18:25;;;;;;;8.27;6.50;;;;;;;;;;1734485;28;20243;-75
2024/01/30 09:19:16;;;;;;;7.93;6.45;;;;;;;;;;1730679;28;20208;-75
2024/01/30 09:20:09;;;;;;;7.10;6.40;;;;;;;;;;1727555;28;20197;-75
2024/01/30 09:21:01;;;;;;;6.75;6.10;;;;;;;;;;1728984;28;20254;-75
2024/01/30 09:21:52;;;;;;;6.13;5.63;;;;;;;;;;1734209;28;20211;-75
2024/01/30 09:22:44;;;;;;;8.18;5.35;;;;;;;;;;1733608;28;20220;-75
2024/01/30 09:23:36;;;;;;;7.65;6.63;;;;;;;;;;1727444;28;20200;-75
2024/01/30 09:24:28;;;;;;;9.23;7.47;;;;;;;;;;1727451;28;20204;-75
2024/01/30 09:25:20;;;;;;;7.55;6.88;;;;;;;;;;1727275;28;20283;-75
2024/01/30 09:26:12;;;;;;;7.93;7.13;;;;;;;;;;1727469;28;20208;-75
2024/01/30 09:27:04;;;;;;;7.78;7.07;;;;;;;;;;1732063;28;20192;-75
2024/01/30 09:27:55;;;;;;;7.70;6.40;;;;;;;;;;1734177;28;20211;-75
2024/01/30 09:28:46;;;;;;;8.18;7.38;;;;;;;;;;1730878;28;20657;-75
2024/01/30 09:29:39;;;;;;;9.60;7.32;;;;;;;;;;1727409;28;20215;-75
2024/01/30 09:30:30;;;;;;;8.40;7.25;;;;;;;;;;1727417;28;20204;-75
2024/01/30 09:31:22;;;;;;;10.75;7.93;;;;;;;;;;1727019;28;20627;-75
2024/01/30 09:32:13;;;;;;;8.85;7.95;;;;;;;;;;1727539;28;20205;-75
2024/01/30 09:33:04;;;;;;;9.75;8.23;;;;;;;;;;1734279;28;20249;-75
2024/01/30 09:33:56;;;;;;;8.15;7.25;;;;;;;;;;1734166;28;20619;-75
2024/01/30 09:34:47;;;;;;;7.40;6.47;;;;;;;;;;1728415;28;20215;-75
2024/01/30 09:35:40;;;;;;;7.07;6.22;;;;;;;;;;1727364;28;20235;-75
2024/01/30 09:36:31;;;;;;;7.38;6.00;;;;;;;;;;1731549;28;20226;-75
2024/01/30 09:37:23;;;;;;;6.00;5.38;;;;;;;;;;1734082;28;20232;-75
2024/01/30 09:38:15;;;;;;;6.75;5.90;;;;;;;;;;1731495;28;20214;-75
2024/01/30 09:39:06;;;;;;;5.85;5.35;;;;;;;;;;1726944;28;20196;-75
2024/01/30 09:39:59;;;;;;;6.00;4.95;;;;;;;;;;1727077;28;20288;-76
2024/01/30 09:40:54;;;;;;;6.05;5.43;;;;;;;;;;1726962;28;20750;-76
2024/01/30 09:41:50;;;;;;;6.10;5.13;;;;;;;;;;1727716;28;20228;-75
2024/01/30 09:42:41;;;;;;;5.68;4.97;;;;;;;;;;1734106;28;20577;-75
2024/01/30 09:43:34;;;;;;;5.22;4.70;;;;;;;;;;1734096;28;20204;-75
2024/01/30 09:44:27;;;;;;;5.78;4.97;;;;;;;;;;1727609;28;20728;-75
2024/01/30 09:45:18;;;;;;;5.55;4.93;;;;;;;;;;1727154;28;20192;-75
2024/01/30 09:46:12;;;;;;;5.30;4.80;;;;;;;;;;1732541;28;20275;-75
2024/01/30 09:47:05;;;;;;;4.50;4.10;;;;;;;;;;1734102;28;20678;-75
2024/01/30 09:47:59;;;;;;;5.32;4.82;;;;;;;;;;1729887;28;20208;-74
2024/01/30 09:48:51;;;;;;;5.25;4.70;;;;;;;;;;1727289;28;20205;-75
2024/01/30 09:49:44;;;;;;;4.57;4.18;;;;;;;;;;1729985;28;20215;-75
2024/01/30 09:50:37;;;;;;;5.93;4.57;;;;;;;;;;1734108;28;20200;-75
2024/01/30 09:51:28;;;;;;;4.88;4.38;;;;;;;;;;1729151;28;20585;-75
2024/01/30 09:52:20;;;;;;;5.63;4.50;;;;;;;;;;1734016;28;20203;-75
2024/01/30 09:53:11;;;;;;;5.15;4.00;;;;;;;;;;1733652;28;20206;-75
2024/01/30 09:54:04;;;;;;;5.28;4.75;;;;;;;;;;1727267;28;20642;-75
2024/01/30 09:54:56;;;;;;;5.60;4.50;;;;;;;;;;1727282;28;20212;-75
2024/01/30 09:55:48;;;;;;;5.35;4.82;;;;;;;;;;1733413;28;20203;-75
2024/01/30 09:56:39;;;;;;;5.53;4.00;;;;;;;;;;1734094;28;20211;-75
2024/01/30 09:57:31;;;;;;;5.30;4.47;;;;;;;;;;1729515;28;20313;-75
2024/01/30 09:58:22;;;;;;;5.13;4.32;;;;;;;;;;1727362;28;20197;-75
2024/01/30 09:59:13;;;;;;;5.78;4.40;;;;;;;;;;1730231;28;20206;-75
2024/01/30 10:00:08;;;;;;;4.57;3.92;;;;;;;;;;1734062;28;20742;-75
2024/01/30 10:00:59;;;;;;;5.28;4.20;;;;;;;;;;1731834;28;20247;-75
2024/01/30 10:01:51;;;;;;;4.47;4.07;;;;;;;;;;1727275;28;20367;-75
2024/01/30 10:02:44;;;;;;;4.63;4.20;;;;;;;;;;1727455;28;20216;-75
2024/01/30 10:03:35;;;;;;;5.22;4.72;;;;;;;;;;1734120;28;20700;-75
2024/01/30 10:04:26;;;;;;;4.50;3.95;;;;;;;;;;1734044;28;20202;-75
2024/01/30 10:05:20;;;;;;;4.55;4.15;;;;;;;;;;1728334;28;20263;-75
2024/01/30 10:06:12;;;;;;;4.28;3.88;;;;;;;;;;1728721;28;20205;-75
2024/01/30 10:07:03;;;;;;;4.70;4.25;;;;;;;;;;1728629;28;20211;-75
2024/01/30 10:07:55;;;;;;;3.92;3.53;;;;;;;;;;1728719;28;20211;-75
2024/01/30 10:08:46;;;;;;;3.90;3.60;;;;;;;;;;1731828;28;20208;-75
2024/01/30 10:09:40;;;;;;;22.60;18.70;;;;;;;;;;1735447;28;20207;-75
2024/01/30 10:10:31;;;;;;;16.15;12.80;;;;;;;;;;1733564;28;20476;-75
2024/01/30 10:11:22;;;;;;;12.35;8.70;;;;;;;;;;1728082;28;20266;-75
2024/01/30 10:12:14;;;;;;;8.52;7.35;;;;;;;;;;1728812;28;20204;-75
2024/01/30 10:13:05;;;;;;;4.78;4.28;;;;;;;;;;1735417;28;20208;-75
2024/01/30 10:13:56;;;;;;;5.72;4.30;;;;;;;;;;1735333;28;20196;-75
2024/01/30 10:14:48;;;;;;;4.32;3.72;;;;;;;;;;1729734;28;20208;-75
2024/01/30 10:15:40;;;;;;;3.72;3.42;;;;;;;;;;1728604;28;20212;-75
2024/01/30 10:16:31;;;;;;;4.63;3.80;;;;;;;;;;1732778;28;20258;-75
2024/01/30 10:17:27;;;;;;;4.55;4.10;;;;;;;;;;1735318;28;20641;-75
2024/01/30 10:18:18;;;;;;;3.88;3.47;;;;;;;;;;1732235;28;20208;-75
2024/01/30 10:19:09;;;;;;;6.60;3.95;;;;;;;;;;1728533;28;20200;-75
2024/01/30 10:20:01;;;;;;;5.20;3.40;;;;;;;;;;1730069;28;20677;-75
2024/01/30 10:20:52;;;;;;;4.05;3.65;;;;;;;;;;1735117;28;20269;-75
2024/01/30 10:21:44;;;;;;;5.80;3.60;;;;;;;;;;1732328;28;20291;-75
2024/01/30 10:22:35;;;;;;;3.60;3.30;;;;;;;;;;1735363;28;20712;-75
2024/01/30 10:23:26;;;;;;;3.80;3.50;;;;;;;;;;1735365;28;20204;-75
2024/01/30 10:24:18;;;;;;;3.70;3.40;;;;;;;;;;1729849;28;20208;-75
2024/01/30 10:25:11;;;;;;;3.55;3.25;;;;;;;;;;1728637;28;20204;-75
2024/01/30 10:26:03;;;;;;;3.92;3.50;;;;;;;;;;1732648;28;20583;-75
2024/01/30 10:26:55;;;;;;;3.78;3.47;;;;;;;;;;1735437;28;20587;-75
2024/01/30 10:27:46;;;;;;;3.50;3.20;;;;;;;;;;1732472;28;20227;-75
2024/01/30 10:28:37;;;;;;;5.88;3.15;;;;;;;;;;1728568;28;20216;-75
2024/01/30 10:29:30;;;;;;;4.38;3.55;;;;;;;;;;1729591;28;20210;-75
2024/01/30 10:30:21;;;;;;;4.38;3.45;;;;;;;;;;1735330;28;20683;-75
2024/01/30 10:31:16;;;;;;;3.95;3.15;;;;;;;;;;1735088;28;20634;-75
2024/01/30 10:32:09;;;;;;;3.67;3.10;;;;;;;;;;1721746;28;20283;-75
2024/01/30 10:33:00;;;;;;;8.57;3.20;;;;;;;;;;1721629;28;20229;-75
2024/01/30 10:33:51;;;;;;;3.38;3.08;;;;;;;;;;1733082;28;20231;-75
2024/01/30 10:34:43;;;;;;;3.72;3.30;;;;;;;;;;1735262;28;20206;-75
2024/01/30 10:35:34;;;;;;;6.18;3.30;;;;;;;;;;1731099;28;20213;-75
2024/01/30 10:36:28;;;;;;;3.70;2.90;;;;;;;;;;1728507;28;20196;-75
2024/01/30 10:37:20;;;;;;;3.63;3.03;;;;;;;;;;1731341;28;20207;-75
2024/01/30 10:38:13;;;;;;;3.85;3.00;;;;;;;;;;1731470;28;20594;-75
2024/01/30 10:39:06;;;;;;;4.35;3.13;;;;;;;;;;1729918;28;20216;-75
2024/01/30 10:40:04;;;;;;;4.97;3.10;;;;;;;;;;1733116;28;20334;-75
2024/01/30 10:40:57;;;;;;;4.38;2.78;;;;;;;;;;1728227;28;20204;-75
2024/01/30 10:41:49;;;;;;;4.20;2.90;;;;;;;;;;1728507;28;20200;-75
2024/01/30 10:42:43;;;;;;;4.68;4.07;;;;;;;;;;1728390;28;20639;-75
2024/01/30 10:43:36;;;;;;;3.63;3.33;;;;;;;;;;1721708;28;20206;-75
2024/01/30 10:44:30;;;;;;;3.72;3.42;;;;;;;;;;1721655;28;20205;-75
2024/01/30 10:45:23;;;;;;;3.63;3.33;;;;;;;;;;1734277;28;20556;-76
2024/01/30 10:46:17;;;;;;;3.53;2.83;;;;;;;;;;1735259;28;20216;-75
2024/01/30 10:47:12;;;;;;;4.30;3.08;;;;;;;;;;1729769;28;20641;-75
2024/01/30 10:48:05;;;;;;;3.95;3.03;;;;;;;;;;1728468;28;20202;-75
2024/01/30 10:48:57;;;;;;;4.85;3.20;;;;;;;;;;1732856;28;20613;-75
2024/01/30 10:49:49;;;;;;;3.08;2.50;;;;;;;;;;1735154;28;20229;-75
2024/01/30 10:50:42;;;;;;;3.20;2.90;;;;;;;;;;1732095;28;20314;-75
2024/01/30 10:51:33;;;;;;;2.60;2.40;;;;;;;;;;1728033;28;20619;-75
2024/01/30 10:52:26;;;;;;;4.15;3.30;;;;;;;;;;1729845;28;20200;-75
2024/01/30 10:53:18;;;;;;;3.05;2.75;;;;;;;;;;1735281;28;20219;-75
2024/01/30 10:54:11;;;;;;;3.75;2.80;;;;;;;;;;1734716;28;20230;-76
2024/01/30 10:55:05;;;;;;;3.65;2.70;;;;;;;;;;1727994;28;20229;-75
2024/01/30 10:55:59;;;;;;;3.05;2.75;;;;;;;;;;1728409;28;20704;-75
2024/01/30 10:56:50;;;;;;;3.15;2.85;;;;;;;;;;1735122;28;20269;-75
2024/01/30 10:57:42;;;;;;;3.47;3.13;;;;;;;;;;1735030;28;20220;-75
2024/01/30 10:58:33;;;;;;;4.63;2.70;;;;;;;;;;1729831;28;20211;-75
2024/01/30 10:59:27;;;;;;;5.22;3.10;;;;;;;;;;1728305;28;20235;-75
2024/01/30 11:00:23;;;;;;;3.35;2.90;;;;;;;;;;1732457;28;20204;-75
2024/01/30 11:01:15;;;;;;;3.10;2.53;;;;;;;;;;1734889;28;20638;-75
2024/01/30 11:02:07;;;;;;;3.47;2.70;;;;;;;;;;1731979;28;20284;-75
2024/01/30 11:02:59;;;;;;;3.17;2.60;;;;;;;;;;1728314;28;20239;-75
2024/01/30 11:03:50;;;;;;;3.65;3.10;;;;;;;;;;1729877;28;20211;-75
2024/01/30 11:04:42;;;;;;;5.00;3.00;;;;;;;;;;1735122;28;20571;-75
2024/01/30 11:05:34;;;;;;;3.20;2.55;;;;;;;;;;1734827;28;20199;-75
2024/01/30 11:06:26;;;;;;;3.53;2.90;;;;;;;;;;1728229;28;20247;-76
2024/01/30 11:07:18;;;;;;;2.80;2.58;;;;;;;;;;1728355;28;20607;-75
2024/01/30 11:08:12;;;;;;;4.10;3.00;;;;;;;;;;1734015;28;20204;-75
2024/01/30 11:09:09;;;;;;;2.92;2.47;;;;;;;;;;1735028;28;20203;-75
2024/01/30 11:10:01;;;;;;;5.57;3.03;;;;;;;;;;1729622;28;20208;-75
2024/01/30 11:10:56;;;;;;;2.75;2.35;;;;;;;;;;1727757;28;20247;-75
2024/01/30 11:11:51;;;;;;;2.80;2.60;;;;;;;;;;1725600;28;20197;-75